sensor_id;sensor_type;location;lat;lon;timestamp;pressure;altitude;pressure_sealevel;temperature;humidity
39267;BME280;24967;51.154;13.812;2022-08-23T00:00:48;99565.00;;;19.01;86.30
39267;BME280;24967;51.154;13.812;2022-08-23T00:03:15;99557.94;;;18.99;86.41
39267;BME280;24967;51.154;13.812;2022-08-23T00:05:41;99562.88;;;18.83;86.91
39267;BME280;24967;51.154;13.812;2022-08-23T00:08:08;99560.19;;;18.89;86.89
39267;BME280;24967;51.154;13.812;2022-08-23T00:10:35;99555.47;;;19.05;85.82
39267;BME280;24967;51.154;13.812;2022-08-23T00:13:03;99554.00;;;18.95;86.28
39267;BME280;24967;51.154;13.812;2022-08-23T00:15:29;99550.25;;;18.90;86.79
39267;BME280;24967;51.154;13.812;2022-08-23T00:17:56;99549.66;;;19.01;86.56
39267;BME280;24967;51.154;13.812;2022-08-23T00:20:24;99553.19;;;19.02;86.25
39267;BME280;24967;51.154;13.812;2022-08-23T00:22:52;99545.50;;;19.05;86.14
39267;BME280;24967;51.154;13.812;2022-08-23T00:25:18;99546.16;;;19.01;86.13
39267;BME280;24967;51.154;13.812;2022-08-23T00:27:45;99547.38;;;18.98;86.57
39267;BME280;24967;51.154;13.812;2022-08-23T00:30:14;99552.13;;;18.96;87.10
39267;BME280;24967;51.154;13.812;2022-08-23T00:32:42;99550.69;;;19.00;86.98
39267;BME280;24967;51.154;13.812;2022-08-23T00:35:11;99556.69;;;19.09;86.57
39267;BME280;24967;51.154;13.812;2022-08-23T00:37:38;99555.66;;;18.96;86.88
39267;BME280;24967;51.154;13.812;2022-08-23T00:40:08;99550.50;;;19.08;86.54
39267;BME280;24967;51.154;13.812;2022-08-23T00:42:39;99554.66;;;19.11;86.36
39267;BME280;24967;51.154;13.812;2022-08-23T00:45:32;99556.09;;;19.13;86.19
39267;BME280;24967;51.154;13.812;2022-08-23T00:48:24;99550.50;;;19.08;86.63
39267;BME280;24967;51.154;13.812;2022-08-23T00:50:55;99552.16;;;19.22;85.89
39267;BME280;24967;51.154;13.812;2022-08-23T00:53:25;99544.28;;;19.08;86.77
39267;BME280;24967;51.154;13.812;2022-08-23T00:55:55;99544.22;;;18.88;88.17
39267;BME280;24967;51.154;13.812;2022-08-23T00:58:23;99545.63;;;18.70;89.69
39267;BME280;24967;51.154;13.812;2022-08-23T01:00:53;99546.78;;;19.09;87.87
39267;BME280;24967;51.154;13.812;2022-08-23T01:03:22;99539.47;;;18.90;88.97
39267;BME280;24967;51.154;13.812;2022-08-23T01:05:57;99534.50;;;19.00;88.55
39267;BME280;24967;51.154;13.812;2022-08-23T01:08:28;99540.53;;;18.89;89.04
39267;BME280;24967;51.154;13.812;2022-08-23T01:10:59;99532.69;;;19.01;89.25
39267;BME280;24967;51.154;13.812;2022-08-23T01:13:35;99537.19;;;18.73;90.85
39267;BME280;24967;51.154;13.812;2022-08-23T01:16:06;99544.44;;;18.86;90.17
39267;BME280;24967;51.154;13.812;2022-08-23T01:18:35;99542.41;;;18.95;89.69
39267;BME280;24967;51.154;13.812;2022-08-23T01:21:08;99540.94;;;18.92;89.42
39267;BME280;24967;51.154;13.812;2022-08-23T01:23:43;99543.81;;;18.84;89.84
39267;BME280;24967;51.154;13.812;2022-08-23T01:26:11;99542.81;;;18.98;89.12
39267;BME280;24967;51.154;13.812;2022-08-23T01:28:40;99542.75;;;18.79;90.27
39267;BME280;24967;51.154;13.812;2022-08-23T01:31:07;99543.81;;;18.84;90.15
39267;BME280;24967;51.154;13.812;2022-08-23T01:33:34;99537.44;;;18.98;89.60
39267;BME280;24967;51.154;13.812;2022-08-23T01:36:02;99540.72;;;18.81;89.99
39267;BME280;24967;51.154;13.812;2022-08-23T01:38:29;99541.75;;;18.86;90.10
39267;BME280;24967;51.154;13.812;2022-08-23T01:40:56;99542.75;;;18.79;90.52
39267;BME280;24967;51.154;13.812;2022-08-23T01:43:23;99537.59;;;18.84;90.18
39267;BME280;24967;51.154;13.812;2022-08-23T01:46:19;99534.72;;;18.92;89.72
39267;BME280;24967;51.154;13.812;2022-08-23T01:48:48;99532.22;;;18.84;90.16
39267;BME280;24967;51.154;13.812;2022-08-23T01:51:17;99539.81;;;18.67;91.94
39267;BME280;24967;51.154;13.812;2022-08-23T01:53:44;99531.81;;;18.80;90.72
39267;BME280;24967;51.154;13.812;2022-08-23T01:56:14;99541.34;;;18.89;90.33
39267;BME280;24967;51.154;13.812;2022-08-23T01:58:45;99544.22;;;18.88;90.31
39267;BME280;24967;51.154;13.812;2022-08-23T02:01:11;99540.94;;;19.06;89.27
39267;BME280;24967;51.154;13.812;2022-08-23T02:03:38;99543.97;;;18.69;91.81
39267;BME280;24967;51.154;13.812;2022-08-23T02:06:05;99541.75;;;18.73;91.55
39267;BME280;24967;51.154;13.812;2022-08-23T02:08:32;99534.22;;;18.68;91.76
39267;BME280;24967;51.154;13.812;2022-08-23T02:11:19;99545.91;;;18.82;91.32
39267;BME280;24967;51.154;13.812;2022-08-23T02:13:47;99549.41;;;18.76;91.29
39267;BME280;24967;51.154;13.812;2022-08-23T02:16:20;99537.31;;;18.59;92.44
39267;BME280;24967;51.154;13.812;2022-08-23T02:18:47;99541.34;;;18.83;91.29
39267;BME280;24967;51.154;13.812;2022-08-23T02:21:15;99545.50;;;18.85;90.84
39267;BME280;24967;51.154;13.812;2022-08-23T02:23:41;99546.09;;;18.94;90.58
39267;BME280;24967;51.154;13.812;2022-08-23T02:26:08;99545.91;;;18.82;91.40
39267;BME280;24967;51.154;13.812;2022-08-23T02:28:36;99543.66;;;19.06;89.94
39267;BME280;24967;51.154;13.812;2022-08-23T02:31:02;99538.66;;;18.89;90.38
39267;BME280;24967;51.154;13.812;2022-08-23T02:33:29;99537.59;;;18.77;90.97
39267;BME280;24967;51.154;13.812;2022-08-23T02:35:56;99544.44;;;18.80;90.82
39267;BME280;24967;51.154;13.812;2022-08-23T02:38:22;99543.41;;;18.81;90.83
39267;BME280;24967;51.154;13.812;2022-08-23T02:40:48;99541.25;;;18.69;91.66
39267;BME280;24967;51.154;13.812;2022-08-23T02:43:15;99542.75;;;18.79;91.00
39267;BME280;24967;51.154;13.812;2022-08-23T02:45:43;99546.22;;;18.66;91.94
39267;BME280;24967;51.154;13.812;2022-08-23T02:48:10;99549.09;;;18.58;93.24
39267;BME280;24967;51.154;13.812;2022-08-23T02:50:37;99547.13;;;18.73;92.52
39267;BME280;24967;51.154;13.812;2022-08-23T02:53:03;99552.50;;;18.73;92.37
39267;BME280;24967;51.154;13.812;2022-08-23T02:55:30;99552.53;;;18.99;89.85
39267;BME280;24967;51.154;13.812;2022-08-23T02:57:56;99546.50;;;18.84;90.66
39267;BME280;24967;51.154;13.812;2022-08-23T03:00:24;99549.63;;;18.81;90.43
39267;BME280;24967;51.154;13.812;2022-08-23T03:02:52;99544.59;;;18.65;92.07
39267;BME280;24967;51.154;13.812;2022-08-23T03:05:19;99551.09;;;18.90;90.84
39267;BME280;24967;51.154;13.812;2022-08-23T03:07:45;99556.16;;;18.65;91.29
39267;BME280;24967;51.154;13.812;2022-08-23T03:10:12;99556.22;;;18.79;90.91
39267;BME280;24967;51.154;13.812;2022-08-23T03:12:39;99560.97;;;18.70;91.62
39267;BME280;24967;51.154;13.812;2022-08-23T03:15:06;99558.63;;;18.60;92.64
39267;BME280;24967;51.154;13.812;2022-08-23T03:17:33;99557.28;;;18.91;90.89
39267;BME280;24967;51.154;13.812;2022-08-23T03:20:02;99561.63;;;18.79;91.03
39267;BME280;24967;51.154;13.812;2022-08-23T03:22:29;99565.59;;;18.83;91.38
39267;BME280;24967;51.154;13.812;2022-08-23T03:24:55;99561.19;;;18.75;91.74
39267;BME280;24967;51.154;13.812;2022-08-23T03:27:22;99564.97;;;18.87;91.03
39267;BME280;24967;51.154;13.812;2022-08-23T03:29:49;99563.91;;;18.82;91.30
39267;BME280;24967;51.154;13.812;2022-08-23T03:32:15;99568.28;;;18.83;91.27
39267;BME280;24967;51.154;13.812;2022-08-23T03:34:42;99567.22;;;18.77;91.60
39267;BME280;24967;51.154;13.812;2022-08-23T03:37:10;99564.53;;;18.90;91.03
39267;BME280;24967;51.154;13.812;2022-08-23T03:39:36;99563.72;;;18.83;91.24
39267;BME280;24967;51.154;13.812;2022-08-23T03:42:03;99569.75;;;18.92;90.77
39267;BME280;24967;51.154;13.812;2022-08-23T03:44:30;99571.22;;;19.01;90.54
39267;BME280;24967;51.154;13.812;2022-08-23T03:46:57;99568.50;;;18.94;90.69
39267;BME280;24967;51.154;13.812;2022-08-23T03:49:23;99578.88;;;18.97;90.17
39267;BME280;24967;51.154;13.812;2022-08-23T03:51:50;99578.00;;;18.90;90.76
39267;BME280;24967;51.154;13.812;2022-08-23T03:54:19;99583.78;;;18.81;91.56
39267;BME280;24967;51.154;13.812;2022-08-23T03:56:51;99582.78;;;18.88;90.87
39267;BME280;24967;51.154;13.812;2022-08-23T03:59:18;99576.75;;;18.80;91.37
39267;BME280;24967;51.154;13.812;2022-08-23T04:01:44;99581.31;;;18.79;91.34
39267;BME280;24967;51.154;13.812;2022-08-23T04:04:11;99584.59;;;18.74;91.88
39267;BME280;24967;51.154;13.812;2022-08-23T04:06:38;99585.69;;;18.93;91.08
39267;BME280;24967;51.154;13.812;2022-08-23T04:09:04;99582.19;;;18.99;90.44
39267;BME280;24967;51.154;13.812;2022-08-23T04:11:32;99581.34;;;18.99;90.50
39267;BME280;24967;51.154;13.812;2022-08-23T04:13:59;99578.25;;;18.95;90.72
39267;BME280;24967;51.154;13.812;2022-08-23T04:16:25;99583.00;;;19.00;90.11
39267;BME280;24967;51.154;13.812;2022-08-23T04:18:53;99581.13;;;18.94;90.03
39267;BME280;24967;51.154;13.812;2022-08-23T04:21:21;99586.50;;;18.94;90.43
39267;BME280;24967;51.154;13.812;2022-08-23T04:23:48;99582.16;;;18.86;90.96
39267;BME280;24967;51.154;13.812;2022-08-23T04:26:15;99587.13;;;18.89;90.99
39267;BME280;24967;51.154;13.812;2022-08-23T04:28:43;99583.22;;;18.98;90.43
39267;BME280;24967;51.154;13.812;2022-08-23T04:31:09;99587.81;;;19.11;89.15
39267;BME280;24967;51.154;13.812;2022-08-23T04:33:36;99585.31;;;19.16;88.88
39267;BME280;24967;51.154;13.812;2022-08-23T04:36:03;99590.72;;;19.10;89.00
39267;BME280;24967;51.154;13.812;2022-08-23T04:38:30;99587.81;;;19.18;88.96
39267;BME280;24967;51.154;13.812;2022-08-23T04:40:57;99584.88;;;18.99;89.71
39267;BME280;24967;51.154;13.812;2022-08-23T04:43:43;99588.19;;;19.02;90.16
39267;BME280;24967;51.154;13.812;2022-08-23T04:46:10;99593.59;;;19.02;89.83
39267;BME280;24967;51.154;13.812;2022-08-23T04:48:39;99590.28;;;19.06;89.77
39267;BME280;24967;51.154;13.812;2022-08-23T04:51:06;99589.66;;;18.97;89.85
39267;BME280;24967;51.154;13.812;2022-08-23T04:53:33;99591.28;;;18.92;90.67
39267;BME280;24967;51.154;13.812;2022-08-23T04:56:00;99592.59;;;19.09;89.56
39267;BME280;24967;51.154;13.812;2022-08-23T04:58:26;99596.44;;;18.87;90.86
39267;BME280;24967;51.154;13.812;2022-08-23T05:00:57;99596.75;;;18.64;92.19
39267;BME280;24967;51.154;13.812;2022-08-23T05:03:24;99598.44;;;18.65;93.32
39267;BME280;24967;51.154;13.812;2022-08-23T05:05:51;99598.81;;;18.55;93.89
39267;BME280;24967;51.154;13.812;2022-08-23T05:08:18;99603.19;;;18.69;93.75
39267;BME280;24967;51.154;13.812;2022-08-23T05:10:45;99607.06;;;18.53;94.35
39267;BME280;24967;51.154;13.812;2022-08-23T05:13:12;99606.09;;;18.68;94.33
39267;BME280;24967;51.154;13.812;2022-08-23T05:15:39;99613.19;;;18.75;94.06
39267;BME280;24967;51.154;13.812;2022-08-23T05:18:07;99617.13;;;18.73;94.55
39267;BME280;24967;51.154;13.812;2022-08-23T05:20:33;99611.53;;;18.74;94.19
39267;BME280;24967;51.154;13.812;2022-08-23T05:23:00;99612.06;;;18.63;95.42
39267;BME280;24967;51.154;13.812;2022-08-23T05:25:28;99609.78;;;18.60;96.18
39267;BME280;24967;51.154;13.812;2022-08-23T05:28:14;99605.44;;;18.59;96.49
39267;BME280;24967;51.154;13.812;2022-08-23T05:30:41;99610.84;;;18.66;96.62
39267;BME280;24967;51.154;13.812;2022-08-23T05:33:08;99611.34;;;18.76;96.50
39267;BME280;24967;51.154;13.812;2022-08-23T05:35:35;99610.50;;;18.75;96.10
39267;BME280;24967;51.154;13.812;2022-08-23T05:38:03;99616.22;;;18.59;97.88
39267;BME280;24967;51.154;13.812;2022-08-23T05:41:07;99619.16;;;18.71;97.62
39267;BME280;24967;51.154;13.812;2022-08-23T05:43:34;99616.53;;;18.84;96.84
39267;BME280;24967;51.154;13.812;2022-08-23T05:46:02;99632.19;;;18.67;96.40
39267;BME280;24967;51.154;13.812;2022-08-23T05:48:34;99624.81;;;18.76;97.51
39267;BME280;24967;51.154;13.812;2022-08-23T05:51:09;99622.78;;;18.91;96.62
39267;BME280;24967;51.154;13.812;2022-08-23T05:53:36;99620.28;;;18.90;97.44
39267;BME280;24967;51.154;13.812;2022-08-23T05:56:11;99627.31;;;18.84;97.64
39267;BME280;24967;51.154;13.812;2022-08-23T05:58:37;99630.66;;;18.93;98.27
39267;BME280;24967;51.154;13.812;2022-08-23T06:01:04;99626.66;;;18.75;99.00
39267;BME280;24967;51.154;13.812;2022-08-23T06:03:32;99620.94;;;18.92;98.50
39267;BME280;24967;51.154;13.812;2022-08-23T06:05:59;99622.59;;;18.99;98.29
39267;BME280;24967;51.154;13.812;2022-08-23T06:08:27;99634.97;;;18.87;99.98
39267;BME280;24967;51.154;13.812;2022-08-23T06:11:05;99638.16;;;19.04;98.70
39267;BME280;24967;51.154;13.812;2022-08-23T06:13:32;99634.44;;;19.12;98.31
39267;BME280;24967;51.154;13.812;2022-08-23T06:15:59;99633.66;;;19.44;95.47
39267;BME280;24967;51.154;13.812;2022-08-23T06:18:26;99633.84;;;19.23;95.81
39267;BME280;24967;51.154;13.812;2022-08-23T06:21:01;99626.59;;;19.23;95.06
39267;BME280;24967;51.154;13.812;2022-08-23T06:23:28;99636.53;;;19.36;95.04
39267;BME280;24967;51.154;13.812;2022-08-23T06:25:55;99634.66;;;19.23;95.43
39267;BME280;24967;51.154;13.812;2022-08-23T06:28:21;99633.63;;;19.18;95.78
39267;BME280;24967;51.154;13.812;2022-08-23T06:30:48;99638.31;;;18.89;98.38
39267;BME280;24967;51.154;13.812;2022-08-23T06:33:16;99633.81;;;19.10;97.72
39267;BME280;24967;51.154;13.812;2022-08-23T06:35:43;99633.81;;;19.10;97.36
39267;BME280;24967;51.154;13.812;2022-08-23T06:38:11;99637.09;;;19.05;96.90
39267;BME280;24967;51.154;13.812;2022-08-23T06:40:37;99641.09;;;19.22;97.11
39267;BME280;24967;51.154;13.812;2022-08-23T06:43:04;99645.84;;;19.14;97.10
39267;BME280;24967;51.154;13.812;2022-08-23T06:45:30;99644.22;;;19.26;95.97
39267;BME280;24967;51.154;13.812;2022-08-23T06:47:58;99647.13;;;19.31;95.53
39267;BME280;24967;51.154;13.812;2022-08-23T06:50:24;99645.50;;;19.37;95.48
39267;BME280;24967;51.154;13.812;2022-08-23T06:52:51;99655.00;;;19.39;94.42
39267;BME280;24967;51.154;13.812;2022-08-23T06:55:19;99657.50;;;19.34;94.79
39267;BME280;24967;51.154;13.812;2022-08-23T06:57:46;99660.41;;;19.39;95.23
39267;BME280;24967;51.154;13.812;2022-08-23T07:00:13;99658.94;;;19.30;95.12
39267;BME280;24967;51.154;13.812;2022-08-23T07:02:39;99654.47;;;18.83;97.42
39267;BME280;24967;51.154;13.812;2022-08-23T07:05:06;99654.25;;;18.91;98.37
39267;BME280;24967;51.154;13.812;2022-08-23T07:07:33;99657.13;;;18.76;98.57
39267;BME280;24967;51.154;13.812;2022-08-23T07:09:59;99655.78;;;19.07;98.14
39267;BME280;24967;51.154;13.812;2022-08-23T07:12:27;99670.97;;;19.28;96.90
39267;BME280;24967;51.154;13.812;2022-08-23T07:14:54;99665.34;;;19.29;96.71
39267;BME280;24967;51.154;13.812;2022-08-23T07:17:21;99658.31;;;19.35;96.67
39267;BME280;24967;51.154;13.812;2022-08-23T07:19:47;99671.09;;;19.06;96.73
39267;BME280;24967;51.154;13.812;2022-08-23T07:22:14;99676.56;;;19.39;95.91
39267;BME280;24967;51.154;13.812;2022-08-23T07:24:40;99678.03;;;19.42;95.40
39267;BME280;24967;51.154;13.812;2022-08-23T07:27:07;99673.88;;;19.39;95.67
39267;BME280;24967;51.154;13.812;2022-08-23T07:29:36;99683.00;;;19.38;95.35
39267;BME280;24967;51.154;13.812;2022-08-23T07:32:03;99675.97;;;19.37;96.20
39267;BME280;24967;51.154;13.812;2022-08-23T07:34:30;99680.75;;;19.49;95.35
39267;BME280;24967;51.154;13.812;2022-08-23T07:36:57;99680.94;;;19.47;94.20
39267;BME280;24967;51.154;13.812;2022-08-23T07:39:25;99676.38;;;19.28;94.55
39267;BME280;24967;51.154;13.812;2022-08-23T07:41:57;99677.53;;;19.12;95.86
39267;BME280;24967;51.154;13.812;2022-08-23T07:44:23;99680.03;;;19.07;96.89
39267;BME280;24967;51.154;13.812;2022-08-23T07:46:53;99681.50;;;19.09;96.89
39267;BME280;24967;51.154;13.812;2022-08-23T07:49:21;99682.94;;;19.12;97.30
39267;BME280;24967;51.154;13.812;2022-08-23T07:51:49;99684.78;;;19.05;97.79
39267;BME280;24967;51.154;13.812;2022-08-23T07:54:18;99681.88;;;19.06;97.53
39267;BME280;24967;51.154;13.812;2022-08-23T07:56:46;99680.03;;;19.13;98.08
39267;BME280;24967;51.154;13.812;2022-08-23T07:59:13;99679.00;;;19.14;97.76
39267;BME280;24967;51.154;13.812;2022-08-23T08:01:43;99684.78;;;19.11;97.97
39267;BME280;24967;51.154;13.812;2022-08-23T08:04:11;99689.34;;;19.04;98.61
39267;BME280;24967;51.154;13.812;2022-08-23T08:06:41;99688.31;;;19.05;99.40
39267;BME280;24967;51.154;13.812;2022-08-23T08:09:09;99693.75;;;19.25;97.17
39267;BME280;24967;51.154;13.812;2022-08-23T08:11:40;99697.28;;;19.26;97.64
39267;BME280;24967;51.154;13.812;2022-08-23T08:14:07;99701.84;;;19.25;98.35
39267;BME280;24967;51.154;13.812;2022-08-23T08:16:37;99702.94;;;19.44;97.52
39267;BME280;24967;51.154;13.812;2022-08-23T08:19:06;99697.53;;;19.51;96.37
39267;BME280;24967;51.154;13.812;2022-08-23T08:21:35;99696.91;;;19.42;97.66
39267;BME280;24967;51.154;13.812;2022-08-23T08:24:02;99705.63;;;19.57;97.56
39267;BME280;24967;51.154;13.812;2022-08-23T08:26:29;99706.91;;;19.61;97.36
39267;BME280;24967;51.154;13.812;2022-08-23T08:28:56;99707.09;;;19.60;97.72
39267;BME280;24967;51.154;13.812;2022-08-23T08:31:23;99701.28;;;19.63;98.19
39267;BME280;24967;51.154;13.812;2022-08-23T08:33:50;99702.78;;;19.65;99.57
39267;BME280;24967;51.154;13.812;2022-08-23T08:36:29;99702.59;;;19.87;98.95
39267;BME280;24967;51.154;13.812;2022-08-23T08:38:57;99695.97;;;19.89;97.58
39267;BME280;24967;51.154;13.812;2022-08-23T08:41:33;99698.44;;;20.04;95.70
39267;BME280;24967;51.154;13.812;2022-08-23T08:44:07;99701.97;;;20.05;96.65
39267;BME280;24967;51.154;13.812;2022-08-23T08:46:40;99693.03;;;20.18;94.77
39267;BME280;24967;51.154;13.812;2022-08-23T08:49:10;99685.75;;;20.31;94.20
39267;BME280;24967;51.154;13.812;2022-08-23T08:51:44;99688.00;;;20.48;92.48
39267;BME280;24967;51.154;13.812;2022-08-23T08:54:18;99689.88;;;20.41;93.28
39267;BME280;24967;51.154;13.812;2022-08-23T08:56:51;99688.00;;;20.41;92.78
39267;BME280;24967;51.154;13.812;2022-08-23T08:59:21;99688.25;;;20.26;93.88
39267;BME280;24967;51.154;13.812;2022-08-23T09:01:48;99690.69;;;20.54;93.04
39267;BME280;24967;51.154;13.812;2022-08-23T09:04:15;99684.69;;;20.59;92.18
39267;BME280;24967;51.154;13.812;2022-08-23T09:06:49;99689.44;;;20.70;92.08
39267;BME280;24967;51.154;13.812;2022-08-23T09:09:32;99689.22;;;20.72;90.34
39267;BME280;24967;51.154;13.812;2022-08-23T09:12:14;99694.47;;;20.53;90.00
39267;BME280;24967;51.154;13.812;2022-08-23T09:15:02;99684.00;;;20.77;88.82
39267;BME280;24967;51.154;13.812;2022-08-23T09:17:37;99689.94;;;20.99;88.49
39267;BME280;24967;51.154;13.812;2022-08-23T09:20:06;99693.03;;;21.02;88.27
39267;BME280;24967;51.154;13.812;2022-08-23T09:22:36;99693.66;;;21.04;88.19
39267;BME280;24967;51.154;13.812;2022-08-23T09:25:07;99701.09;;;21.16;88.84
39267;BME280;24967;51.154;13.812;2022-08-23T09:27:35;99698.53;;;21.27;88.19
39267;BME280;24967;51.154;13.812;2022-08-23T09:30:03;99692.56;;;21.19;85.64
39267;BME280;24967;51.154;13.812;2022-08-23T09:32:33;99699.84;;;21.18;87.29
39267;BME280;24967;51.154;13.812;2022-08-23T09:35:07;99700.66;;;21.19;85.31
39267;BME280;24967;51.154;13.812;2022-08-23T09:37:46;99701.41;;;21.39;85.23
39267;BME280;24967;51.154;13.812;2022-08-23T09:40:19;99699.50;;;21.46;84.89
39267;BME280;24967;51.154;13.812;2022-08-23T09:43:01;99702.69;;;21.37;84.43
39267;BME280;24967;51.154;13.812;2022-08-23T09:45:31;99697.81;;;21.52;84.33
39267;BME280;24967;51.154;13.812;2022-08-23T09:47:58;99702.41;;;21.45;83.52
39267;BME280;24967;51.154;13.812;2022-08-23T09:50:26;99699.97;;;21.37;84.82
39267;BME280;24967;51.154;13.812;2022-08-23T09:52:56;99699.09;;;21.43;84.14
39267;BME280;24967;51.154;13.812;2022-08-23T09:55:29;99707.09;;;21.24;84.37
39267;BME280;24967;51.154;13.812;2022-08-23T09:57:58;99699.97;;;20.85;86.67
39267;BME280;24967;51.154;13.812;2022-08-23T10:00:28;99705.88;;;21.14;85.12
39267;BME280;24967;51.154;13.812;2022-08-23T10:02:58;99709.47;;;21.01;86.47
39267;BME280;24967;51.154;13.812;2022-08-23T10:05:49;99707.19;;;20.98;87.07
39267;BME280;24967;51.154;13.812;2022-08-23T10:08:21;99705.56;;;21.35;85.56
39267;BME280;24967;51.154;13.812;2022-08-23T10:10:51;99714.19;;;21.19;87.08
39267;BME280;24967;51.154;13.812;2022-08-23T10:13:20;99712.00;;;21.41;86.55
39267;BME280;24967;51.154;13.812;2022-08-23T10:15:56;99705.97;;;21.39;85.44
39267;BME280;24967;51.154;13.812;2022-08-23T10:18:34;99707.69;;;21.26;84.67
39267;BME280;24967;51.154;13.812;2022-08-23T10:21:06;99705.22;;;21.25;83.78
39267;BME280;24967;51.154;13.812;2022-08-23T10:23:42;99716.41;;;21.28;83.11
39267;BME280;24967;51.154;13.812;2022-08-23T10:26:21;99713.31;;;21.63;81.79
39267;BME280;24967;51.154;13.812;2022-08-23T10:28:54;99708.78;;;21.57;82.25
39267;BME280;24967;51.154;13.812;2022-08-23T10:31:46;99715.50;;;21.48;81.16
39267;BME280;24967;51.154;13.812;2022-08-23T10:34:32;99711.09;;;21.54;82.00
39267;BME280;24967;51.154;13.812;2022-08-23T10:37:14;99716.66;;;21.20;83.56
39267;BME280;24967;51.154;13.812;2022-08-23T10:39:53;99721.75;;;21.48;82.72
39267;BME280;24967;51.154;13.812;2022-08-23T10:42:35;99718.91;;;21.37;83.42
39267;BME280;24967;51.154;13.812;2022-08-23T10:45:14;99721.13;;;21.46;84.22
39267;BME280;24967;51.154;13.812;2022-08-23T10:47:52;99721.31;;;21.52;83.20
39267;BME280;24967;51.154;13.812;2022-08-23T10:50:27;99722.03;;;21.65;83.31
39267;BME280;24967;51.154;13.812;2022-08-23T10:53:03;99720.84;;;21.61;81.88
39267;BME280;24967;51.154;13.812;2022-08-23T10:55:36;99722.44;;;21.37;83.51
39267;BME280;24967;51.154;13.812;2022-08-23T10:58:23;99723.75;;;21.60;82.79
39267;BME280;24967;51.154;13.812;2022-08-23T11:00:51;99720.66;;;21.56;82.30
39267;BME280;24967;51.154;13.812;2022-08-23T11:03:24;99725.25;;;21.56;83.25
39267;BME280;24967;51.154;13.812;2022-08-23T11:12:22;99723.66;;;21.41;83.06
39267;BME280;24967;51.154;13.812;2022-08-23T11:15:20;99724.84;;;21.52;83.88
39267;BME280;24967;51.154;13.812;2022-08-23T11:18:00;99719.13;;;21.67;82.50
39267;BME280;24967;51.154;13.812;2022-08-23T11:21:00;99718.50;;;21.65;84.40
39267;BME280;24967;51.154;13.812;2022-08-23T11:29:35;99720.41;;;21.64;81.33
39267;BME280;24967;51.154;13.812;2022-08-23T11:32:30;99722.94;;;21.84;79.44
39267;BME280;24967;51.154;13.812;2022-08-23T11:35:30;99723.56;;;21.86;80.03
39267;BME280;24967;51.154;13.812;2022-08-23T11:38:00;99718.34;;;21.91;80.20
39267;BME280;24967;51.154;13.812;2022-08-23T11:40:41;99723.41;;;22.06;79.26
39267;BME280;24967;51.154;13.812;2022-08-23T11:43:19;99719.38;;;22.15;78.61
39267;BME280;24967;51.154;13.812;2022-08-23T11:45:49;99726.34;;;22.05;78.51
39267;BME280;24967;51.154;13.812;2022-08-23T11:48:20;99723.22;;;21.76;79.45
39267;BME280;24967;51.154;13.812;2022-08-23T11:51:05;99730.41;;;21.64;80.29
39267;BME280;24967;51.154;13.812;2022-08-23T11:53:48;99728.78;;;21.81;80.23
39267;BME280;24967;51.154;13.812;2022-08-23T11:56:35;99729.31;;;21.96;80.61
39267;BME280;24967;51.154;13.812;2022-08-23T11:59:24;99729.34;;;22.22;79.13
39267;BME280;24967;51.154;13.812;2022-08-23T12:02:32;99734.00;;;22.08;79.44
39267;BME280;24967;51.154;13.812;2022-08-23T12:05:18;99725.97;;;22.26;78.75
39267;BME280;24967;51.154;13.812;2022-08-23T12:07:51;99730.84;;;22.17;78.93
39267;BME280;24967;51.154;13.812;2022-08-23T12:10:23;99731.13;;;22.03;79.57
39267;BME280;24967;51.154;13.812;2022-08-23T12:13:30;99727.22;;;21.99;78.54
39267;BME280;24967;51.154;13.812;2022-08-23T12:16:06;99731.56;;;22.00;79.08
39267;BME280;24967;51.154;13.812;2022-08-23T12:18:36;99733.63;;;22.04;79.33
39267;BME280;24967;51.154;13.812;2022-08-23T12:21:04;99735.28;;;22.05;79.84
39267;BME280;24967;51.154;13.812;2022-08-23T12:23:42;99741.97;;;22.03;79.95
39267;BME280;24967;51.154;13.812;2022-08-23T12:26:12;99740.38;;;21.95;80.47
39267;BME280;24967;51.154;13.812;2022-08-23T12:28:49;99733.19;;;21.82;81.44
39267;BME280;24967;51.154;13.812;2022-08-23T12:31:23;99734.63;;;21.85;80.97
39267;BME280;24967;51.154;13.812;2022-08-23T12:34:00;99735.16;;;21.93;80.98
39267;BME280;24967;51.154;13.812;2022-08-23T12:36:33;99729.66;;;22.07;81.10
39267;BME280;24967;51.154;13.812;2022-08-23T12:39:05;99731.03;;;22.16;81.44
39267;BME280;24967;51.154;13.812;2022-08-23T12:41:49;99733.72;;;22.23;81.66
39267;BME280;24967;51.154;13.812;2022-08-23T12:44:19;99733.09;;;22.21;79.05
39267;BME280;24967;51.154;13.812;2022-08-23T12:46:47;99730.75;;;21.99;79.68
39267;BME280;24967;51.154;13.812;2022-08-23T12:49:23;99731.09;;;22.09;81.11
39267;BME280;24967;51.154;13.812;2022-08-23T12:51:53;99729.84;;;22.12;79.98
39267;BME280;24967;51.154;13.812;2022-08-23T12:54:23;99732.28;;;22.20;78.96
39267;BME280;24967;51.154;13.812;2022-08-23T12:56:52;99730.44;;;22.39;77.90
39267;BME280;24967;51.154;13.812;2022-08-23T12:59:32;99732.31;;;22.38;78.12
39267;BME280;24967;51.154;13.812;2022-08-23T13:02:02;99727.94;;;22.37;78.14
39267;BME280;24967;51.154;13.812;2022-08-23T13:04:31;99727.66;;;22.27;80.36
39267;BME280;24967;51.154;13.812;2022-08-23T13:07:02;99733.00;;;22.34;79.86
39267;BME280;24967;51.154;13.812;2022-08-23T13:09:32;99732.09;;;22.40;80.74
39267;BME280;24967;51.154;13.812;2022-08-23T13:12:00;99732.72;;;22.17;79.83
39267;BME280;24967;51.154;13.812;2022-08-23T13:14:35;99734.38;;;22.18;79.28
39267;BME280;24967;51.154;13.812;2022-08-23T13:17:15;99722.41;;;22.51;77.57
39267;BME280;24967;51.154;13.812;2022-08-23T13:19:42;99728.88;;;22.68;76.91
39267;BME280;24967;51.154;13.812;2022-08-23T13:22:11;99720.31;;;22.53;78.18